createdAt,value
2019-06-01T00:01:10.890Z,9.49
2019-06-01T00:03:40.248Z,9.49
2019-06-01T00:06:08.743Z,9.46
2019-06-01T00:08:37.121Z,9.43
2019-06-01T00:11:05.635Z,9.42
2019-06-01T00:13:34.066Z,9.39
2019-06-01T00:16:02.487Z,9.40
2019-06-01T00:18:30.884Z,9.39
2019-06-01T00:20:59.317Z,9.34
2019-06-01T00:23:27.730Z,9.32
2019-06-01T00:25:56.137Z,9.26
2019-06-01T00:28:24.530Z,9.23
2019-06-01T00:30:52.958Z,9.20
2019-06-01T00:33:21.369Z,9.19
2019-06-01T00:35:49.763Z,9.18
2019-06-01T00:38:18.196Z,9.15
2019-06-01T00:40:47.906Z,9.14
2019-06-01T00:43:16.433Z,9.09
2019-06-01T00:45:44.871Z,9.03
2019-06-01T00:48:13.332Z,8.98
2019-06-01T00:50:43.005Z,8.95
2019-06-01T00:53:11.484Z,8.93
2019-06-01T00:55:39.964Z,8.92
2019-06-01T00:58:08.347Z,8.95
2019-06-01T01:00:43.820Z,8.95
2019-06-01T01:03:06.970Z,8.93
2019-06-01T01:05:35.403Z,8.91
2019-06-01T01:08:03.837Z,8.90
2019-06-01T01:10:32.256Z,8.88
2019-06-01T01:13:04.937Z,8.86
2019-06-01T01:15:34.476Z,8.85
2019-06-01T01:18:02.993Z,8.82
2019-06-01T01:20:31.413Z,8.80
2019-06-01T01:22:59.835Z,8.78
2019-06-01T01:25:28.272Z,8.72
2019-06-01T01:27:57.072Z,8.68
2019-06-01T01:30:25.584Z,8.66
2019-06-01T01:32:54.006Z,8.63
2019-06-01T01:35:22.414Z,8.58
2019-06-01T01:37:51.963Z,8.56
2019-06-01T01:40:20.388Z,8.54
2019-06-01T01:42:49.010Z,8.53
2019-06-01T01:45:18.724Z,8.48
2019-06-01T01:47:47.160Z,8.45
2019-06-01T01:50:15.794Z,8.43
2019-06-01T01:52:44.224Z,8.41
2019-06-01T01:55:12.944Z,8.39
2019-06-01T01:57:41.363Z,8.38
2019-06-01T02:00:11.371Z,8.37
2019-06-01T02:02:39.794Z,8.36
2019-06-01T02:05:08.843Z,8.33
2019-06-01T02:07:37.503Z,8.32
2019-06-01T02:10:10.337Z,8.28
2019-06-01T02:12:38.749Z,8.24
2019-06-01T02:15:08.515Z,8.19
2019-06-01T02:17:36.927Z,8.17
2019-06-01T02:20:08.220Z,8.15
2019-06-01T02:22:36.651Z,8.11
2019-06-01T02:25:06.913Z,8.11
2019-06-01T02:27:35.341Z,8.06
2019-06-01T02:30:05.858Z,8.08
2019-06-01T02:32:34.324Z,8.04
2019-06-01T02:35:02.811Z,8.03
2019-06-01T02:37:31.195Z,7.99
2019-06-01T02:40:00.938Z,7.96
2019-06-01T02:42:29.392Z,7.97
2019-06-01T02:44:59.116Z,7.98
2019-06-01T02:47:27.578Z,7.94
2019-06-01T02:49:57.586Z,7.92
2019-06-01T02:52:26.266Z,7.90
2019-06-01T02:54:55.575Z,7.90
2019-06-01T02:57:25.528Z,7.90
2019-06-01T02:59:53.935Z,7.89
2019-06-01T03:02:22.403Z,7.88
2019-06-01T03:04:50.884Z,7.86
2019-06-01T03:07:19.754Z,7.85
2019-06-01T03:09:48.616Z,7.81
2019-06-01T03:12:19.507Z,7.75
2019-06-01T03:14:49.535Z,7.74
2019-06-01T03:17:19.799Z,7.73
2019-06-01T03:19:50.314Z,7.70
2019-06-01T03:22:21.782Z,7.66
2019-06-01T03:24:52.981Z,7.63
2019-06-01T03:27:23.146Z,7.59
2019-06-01T03:29:54.632Z,7.57
2019-06-01T03:32:35.037Z,7.58
2019-06-01T03:34:53.253Z,7.58
2019-06-01T03:37:21.734Z,7.59
2019-06-01T03:39:50.365Z,7.60
2019-06-01T03:42:18.846Z,7.61
2019-06-01T03:44:47.249Z,7.60
2019-06-01T03:47:15.706Z,7.58
2019-06-01T03:49:44.171Z,7.56
2019-06-01T03:52:13.072Z,7.55
2019-06-01T03:54:41.601Z,7.57
2019-06-01T03:57:11.159Z,7.59
2019-06-01T03:59:39.708Z,7.60
2019-06-01T04:02:09.174Z,7.62
2019-06-01T04:04:37.636Z,7.65
2019-06-01T04:07:06.299Z,7.71
2019-06-01T04:09:34.854Z,7.76
2019-06-01T04:12:03.545Z,7.80
2019-06-01T04:14:31.955Z,7.83
2019-06-01T04:17:01.889Z,7.88
2019-06-01T04:19:30.357Z,7.95
2019-06-01T04:21:58.831Z,7.99
2019-06-01T04:24:27.235Z,8.05
2019-06-01T04:26:55.624Z,8.08
2019-06-01T04:29:24.028Z,8.13
2019-06-01T04:31:52.456Z,8.17
2019-06-01T04:34:20.924Z,8.25
2019-06-01T04:36:49.303Z,8.34
2019-06-01T04:39:17.700Z,8.43
2019-06-01T04:41:46.163Z,8.51
2019-06-01T04:44:14.605Z,8.60
2019-06-01T04:46:43.048Z,8.67
2019-06-01T04:49:13.261Z,8.78
2019-06-01T04:51:41.975Z,8.87
2019-06-01T04:54:11.531Z,8.95
2019-06-01T04:56:40.357Z,9.04
2019-06-01T04:59:08.935Z,9.14
2019-06-01T05:01:37.463Z,9.23
2019-06-01T05:04:11.153Z,9.30
2019-06-01T05:06:39.610Z,9.38
2019-06-01T05:09:09.335Z,9.49
2019-06-01T05:11:37.892Z,9.58
2019-06-01T05:14:07.520Z,9.69
2019-06-01T05:16:36.091Z,9.81
2019-06-01T05:19:05.962Z,9.91
2019-06-01T05:21:34.556Z,10.00
2019-06-01T05:24:02.962Z,10.10
2019-06-01T05:26:31.355Z,10.18
2019-06-01T05:28:59.739Z,10.26
2019-06-01T05:31:28.216Z,10.37
2019-06-01T05:33:56.570Z,10.50
2019-06-01T05:36:25.036Z,10.64
2019-06-01T05:38:53.441Z,10.74
2019-06-01T05:41:21.846Z,10.82
2019-06-01T05:43:50.232Z,10.96
2019-06-01T05:46:18.720Z,11.09
2019-06-01T05:48:47.099Z,11.18
2019-06-01T05:51:17.303Z,11.31
2019-06-01T05:53:45.599Z,11.53
2019-06-01T05:56:14.788Z,11.74
2019-06-01T05:58:43.238Z,11.86
2019-06-01T06:01:12.358Z,12.00
2019-06-01T06:03:40.951Z,12.06
2019-06-01T06:06:09.381Z,12.16
2019-06-01T06:08:37.930Z,12.23
2019-06-01T06:11:06.345Z,12.27
2019-06-01T06:13:34.710Z,12.38
2019-06-01T06:16:03.158Z,12.49
2019-06-01T06:18:31.604Z,12.58
2019-06-01T06:21:00.059Z,12.68
2019-06-01T06:23:28.519Z,12.74
2019-06-01T06:25:56.909Z,12.88
2019-06-01T06:28:26.776Z,12.98
2019-06-01T06:30:55.239Z,13.09
2019-06-01T06:33:23.782Z,13.24
2019-06-01T06:35:52.136Z,13.34
2019-06-01T06:38:22.098Z,13.53
2019-06-01T06:41:00.188Z,13.80
2019-06-01T06:43:33.284Z,13.94
2019-06-01T06:46:07.130Z,14.13
2019-06-01T06:48:32.880Z,14.31
2019-06-01T06:51:01.348Z,14.44
2019-06-01T06:53:34.996Z,14.62
2019-06-01T06:55:59.856Z,14.67
2019-06-01T06:58:28.282Z,14.74
2019-06-01T07:00:56.737Z,14.84
2019-06-01T07:03:25.275Z,14.92
2019-06-01T07:05:55.144Z,15.03
2019-06-01T07:08:23.881Z,15.08
2019-06-01T07:10:52.329Z,15.07
2019-06-01T07:13:21.300Z,15.21
2019-06-01T07:15:49.710Z,15.32
2019-06-01T07:18:19.351Z,15.42
2019-06-01T07:20:47.856Z,15.56
2019-06-01T07:23:16.286Z,15.56
2019-06-01T07:25:44.842Z,15.80
2019-06-01T07:28:15.942Z,15.89
2019-06-01T07:30:50.342Z,15.91
2019-06-01T07:33:14.506Z,15.90
2019-06-01T07:35:43.094Z,15.93
2019-06-01T07:38:11.584Z,15.97
2019-06-01T07:40:40.021Z,16.11
2019-06-01T07:43:08.435Z,16.23
2019-06-01T07:45:36.830Z,16.38
2019-06-01T07:48:05.314Z,16.42
2019-06-01T07:50:33.703Z,16.61
2019-06-01T07:53:02.124Z,16.72
2019-06-01T07:55:31.745Z,16.82
2019-06-01T07:58:00.246Z,16.89
2019-06-01T08:00:29.005Z,17.02
2019-06-01T08:02:57.436Z,16.98
2019-06-01T08:05:26.532Z,17.04
2019-06-01T08:07:56.839Z,17.11
2019-06-01T08:10:26.205Z,17.41
2019-06-01T08:12:55.385Z,17.62
2019-06-01T08:15:23.799Z,17.89
2019-06-01T08:17:52.210Z,17.95
2019-06-01T08:20:21.813Z,18.04
2019-06-01T08:22:50.299Z,18.04
2019-06-01T08:25:18.783Z,18.01
2019-06-01T08:27:47.203Z,18.14
2019-06-01T08:30:16.334Z,18.24
2019-06-01T08:32:44.737Z,18.27
2019-06-01T08:35:13.381Z,18.30
2019-06-01T08:37:41.804Z,18.40
2019-06-01T08:40:10.448Z,18.55
2019-06-01T08:42:38.893Z,18.68
2019-06-01T08:45:10.278Z,18.80
2019-06-01T08:47:38.719Z,18.93
2019-06-01T08:50:08.165Z,18.94
2019-06-01T08:52:36.575Z,19.04
2019-06-01T08:55:06.892Z,19.34
2019-06-01T08:57:35.303Z,19.34
2019-06-01T09:00:08.481Z,19.52
2019-06-01T09:02:37.042Z,19.85
2019-06-01T09:05:23.244Z,19.85
2019-06-01T09:07:39.153Z,19.83
2019-06-01T09:10:09.965Z,19.88
2019-06-01T09:12:38.357Z,20.08
2019-06-01T09:15:08.222Z,20.28
2019-06-01T09:17:36.648Z,20.44
2019-06-01T09:20:05.803Z,20.53
2019-06-01T09:22:34.225Z,20.61
2019-06-01T09:25:02.619Z,20.78
2019-06-01T09:27:31.913Z,20.70
2019-06-01T09:30:00.517Z,20.91
2019-06-01T09:32:30.047Z,21.03
2019-06-01T09:34:58.507Z,21.23
2019-06-01T09:37:26.920Z,21.26
2019-06-01T09:39:55.354Z,21.42
2019-06-01T09:42:23.759Z,21.62
2019-06-01T09:44:52.257Z,21.75
2019-06-01T09:47:20.662Z,21.88
2019-06-01T09:49:49.062Z,21.97
2019-06-01T09:52:17.475Z,22.27
2019-06-01T09:54:45.934Z,22.55
2019-06-01T09:57:14.564Z,22.63
2019-06-01T09:59:42.927Z,22.85
2019-06-01T10:02:11.473Z,22.95
2019-06-01T10:04:40.570Z,23.09
2019-06-01T10:07:08.953Z,23.44
2019-06-01T10:09:37.823Z,23.46
2019-06-01T10:12:06.243Z,23.52
2019-06-01T10:14:34.664Z,23.66
2019-06-01T10:17:03.134Z,23.39
2019-06-01T10:19:32.605Z,23.58
2019-06-01T10:22:01.052Z,23.58
2019-06-01T10:24:29.466Z,23.88
2019-06-01T10:26:57.865Z,23.90
2019-06-01T10:29:26.288Z,24.22
2019-06-01T10:31:54.697Z,24.39
2019-06-01T10:34:23.123Z,24.55
2019-06-01T10:36:51.520Z,24.67
2019-06-01T10:39:19.948Z,24.45
2019-06-01T10:41:48.370Z,24.25
2019-06-01T10:44:16.825Z,24.52
2019-06-01T10:46:45.247Z,24.72
2019-06-01T10:49:13.649Z,24.79
2019-06-01T10:51:42.406Z,24.87
2019-06-01T10:54:10.841Z,24.70
2019-06-01T10:56:40.409Z,24.71
2019-06-01T10:59:08.984Z,24.70
2019-06-01T11:01:38.840Z,24.47
2019-06-01T11:04:07.331Z,24.47
2019-06-01T11:06:40.688Z,24.65
2019-06-01T11:09:08.541Z,24.38
2019-06-01T11:11:36.998Z,24.42
2019-06-01T11:14:05.462Z,24.24
2019-06-01T11:16:35.086Z,24.43
2019-06-01T11:19:03.550Z,24.48
2019-06-01T11:21:33.411Z,24.47
2019-06-01T11:24:01.926Z,24.54
2019-06-01T11:26:30.607Z,24.31
2019-06-01T11:28:59.073Z,24.19
2019-06-01T11:31:27.484Z,24.37
2019-06-01T11:33:55.888Z,24.46
2019-06-01T11:36:24.297Z,24.41
2019-06-01T11:38:52.698Z,24.61
2019-06-01T11:41:21.125Z,24.63
2019-06-01T11:43:49.559Z,24.75
2019-06-01T11:46:17.946Z,24.92
2019-06-01T11:48:46.352Z,25.07
2019-06-01T11:51:14.762Z,25.20
2019-06-01T11:53:43.510Z,25.26
2019-06-01T11:56:11.979Z,25.56
2019-06-01T11:58:41.400Z,25.75
2019-06-01T12:01:09.865Z,26.06
2019-06-01T12:03:39.570Z,26.15
2019-06-01T12:06:08.140Z,25.96
2019-06-01T12:08:37.864Z,25.80
2019-06-01T12:11:06.500Z,26.08
2019-06-01T12:13:36.012Z,25.48
2019-06-01T12:16:04.474Z,25.54
2019-06-01T12:18:32.870Z,25.66
2019-06-01T12:21:01.355Z,25.94
2019-06-01T12:23:29.765Z,26.00
2019-06-01T12:25:58.169Z,25.92
2019-06-01T12:28:26.637Z,25.87
2019-06-01T12:30:55.033Z,25.95
2019-06-01T12:33:23.431Z,25.69
2019-06-01T12:35:51.836Z,26.00
2019-06-01T12:38:20.256Z,25.91
2019-06-01T12:40:48.656Z,26.06
2019-06-01T12:43:17.060Z,26.30
2019-06-01T12:45:45.823Z,26.60
2019-06-01T12:48:14.240Z,26.78
2019-06-01T12:50:46.145Z,26.80
2019-06-01T12:53:12.833Z,26.54
2019-06-01T12:55:42.578Z,26.50
2019-06-01T12:58:11.069Z,26.53
2019-06-01T13:00:40.380Z,26.42
2019-06-01T13:03:08.845Z,26.32
2019-06-01T13:05:37.242Z,26.36
2019-06-01T13:08:05.730Z,26.35
2019-06-01T13:10:34.116Z,26.56
2019-06-01T13:13:02.542Z,26.85
2019-06-01T13:15:30.959Z,27.03
2019-06-01T13:17:59.384Z,26.58
2019-06-01T13:20:27.752Z,26.41
2019-06-01T13:22:56.160Z,26.17
2019-06-01T13:25:24.548Z,26.48
2019-06-01T13:27:56.817Z,26.64
2019-06-01T13:30:25.212Z,26.94
2019-06-01T13:32:53.611Z,27.02
2019-06-01T13:35:22.000Z,27.06
2019-06-01T13:37:50.997Z,26.71
2019-06-01T13:40:20.518Z,26.38
2019-06-01T13:42:49.151Z,26.44
2019-06-01T13:45:17.650Z,25.87
2019-06-01T13:47:46.051Z,25.68
2019-06-01T13:50:14.883Z,26.00
2019-06-01T13:52:43.899Z,26.05
2019-06-01T13:55:12.579Z,26.31
2019-06-01T13:57:40.980Z,26.28
2019-06-01T14:00:10.092Z,26.22
2019-06-01T14:02:38.510Z,26.47
2019-06-01T14:05:08.227Z,26.40
2019-06-01T14:07:36.745Z,26.76
2019-06-01T14:10:06.887Z,26.65
2019-06-01T18:19:56.461Z,22.06
2019-06-01T18:22:25.161Z,21.89
2019-06-01T18:24:53.547Z,21.76
2019-06-01T18:27:21.948Z,21.62
2019-06-01T18:29:50.599Z,21.48
2019-06-01T18:32:18.988Z,21.35
2019-06-01T18:34:47.362Z,21.22
2019-06-01T18:37:15.827Z,21.09
2019-06-01T18:39:47.766Z,20.92
2019-06-01T18:42:18.552Z,20.78
2019-06-01T18:44:44.768Z,20.61
2019-06-01T18:47:13.926Z,20.45
2019-06-01T18:49:43.267Z,20.27
2019-06-01T18:52:12.758Z,20.08
2019-06-01T18:54:41.144Z,19.91
2019-06-01T18:57:19.238Z,19.72
2019-06-01T18:59:39.953Z,19.56
2019-06-01T19:02:08.438Z,19.40
2019-06-01T19:04:37.126Z,19.21
2019-06-01T19:07:07.135Z,19.05
2019-06-01T19:09:35.828Z,18.93
2019-06-01T19:12:04.794Z,18.79
2019-06-01T19:14:33.183Z,18.63
2019-06-01T19:17:01.760Z,18.46
2019-06-01T19:19:30.467Z,18.31
2019-06-01T19:21:58.857Z,18.10
2019-06-01T19:24:27.242Z,18.00
2019-06-01T19:26:55.918Z,17.78
2019-06-01T19:29:24.305Z,17.60
2019-06-01T19:31:52.981Z,17.48
2019-06-01T19:34:21.775Z,17.41
2019-06-01T19:36:51.947Z,17.14
2019-06-01T19:39:20.775Z,17.14
2019-06-01T19:41:49.469Z,17.02
2019-06-01T19:44:17.997Z,16.91
2019-06-01T19:46:46.433Z,16.78
2019-06-01T19:49:15.070Z,16.69
2019-06-01T19:51:43.810Z,16.61
2019-06-01T19:54:12.846Z,16.53
2019-06-01T19:56:41.292Z,16.40
2019-06-01T19:59:09.975Z,16.23
2019-06-01T20:01:38.356Z,16.23
2019-06-01T20:04:06.716Z,16.16
2019-06-01T20:06:35.100Z,16.08
2019-06-01T20:09:06.049Z,16.00
2019-06-01T20:11:34.443Z,15.87
2019-06-01T20:14:02.831Z,15.78
2019-06-01T20:16:31.256Z,15.73
2019-06-01T20:18:59.974Z,15.66
2019-06-01T20:21:28.364Z,15.65
2019-06-01T20:23:56.747Z,15.57
2019-06-01T20:26:38.985Z,15.52
2019-06-01T20:28:55.844Z,15.43
2019-06-01T20:31:24.241Z,15.34
2019-06-01T20:33:56.098Z,15.26
2019-06-01T20:36:22.733Z,15.21
2019-06-01T20:38:51.118Z,15.14
2019-06-01T20:41:20.683Z,15.16
2019-06-01T20:43:49.161Z,15.06
2019-06-01T20:46:18.744Z,15.02
2019-06-01T20:48:47.319Z,14.93
2019-06-01T20:51:16.794Z,14.89
2019-06-01T20:53:45.847Z,14.82
2019-06-01T20:56:15.367Z,14.77
2019-06-01T20:58:43.906Z,14.69
2019-06-01T21:01:13.885Z,14.59
2019-06-01T21:03:42.374Z,14.53
2019-06-01T21:06:11.058Z,14.53
2019-06-01T21:08:39.448Z,14.39
2019-06-01T21:11:08.133Z,14.36
2019-06-01T21:13:36.530Z,14.31
2019-06-01T21:16:04.986Z,14.31
2019-06-01T21:18:33.383Z,14.24
2019-06-01T21:21:01.766Z,14.14
2019-06-01T21:23:30.167Z,14.15
2019-06-01T21:25:58.587Z,14.04
2019-06-01T21:28:27.069Z,13.94
2019-06-01T21:30:55.444Z,13.90
2019-06-01T21:33:27.120Z,13.89
2019-06-01T21:35:54.259Z,13.78
2019-06-01T21:38:23.659Z,13.74
2019-06-01T21:40:52.110Z,13.64
2019-06-01T21:43:29.279Z,13.56
2019-06-01T21:45:50.621Z,13.50
2019-06-01T21:48:19.757Z,13.44
2019-06-01T21:50:48.295Z,13.38
2019-06-01T21:53:17.853Z,13.32
2019-06-01T21:55:46.713Z,13.28
2019-06-01T21:58:16.455Z,13.26
2019-06-01T22:00:46.974Z,13.21
2019-06-01T22:03:16.717Z,13.16
2019-06-01T22:05:45.315Z,13.12
2019-06-01T22:08:14.039Z,13.11
2019-06-01T22:10:42.447Z,13.11
2019-06-01T22:13:18.696Z,13.13
2019-06-01T22:15:41.043Z,13.11
2019-06-01T22:18:09.776Z,13.10
2019-06-01T22:20:38.179Z,13.04
2019-06-01T22:23:06.565Z,13.00
2019-06-01T22:25:35.255Z,12.94
2019-06-01T22:28:04.040Z,12.88
2019-06-01T22:30:32.430Z,12.85
2019-06-01T22:33:01.063Z,12.79
2019-06-01T22:35:29.455Z,12.75
2019-06-01T22:37:57.840Z,12.73
2019-06-01T22:40:27.281Z,12.68
2019-06-01T22:42:55.814Z,12.64
2019-06-01T22:45:24.716Z,12.60
2019-06-01T22:47:53.437Z,12.55
2019-06-01T22:50:22.704Z,12.52
2019-06-01T22:52:51.116Z,12.49
2019-06-01T22:55:20.097Z,12.47
2019-06-01T22:57:48.579Z,12.40
2019-06-01T23:00:17.869Z,12.34
2019-06-01T23:02:46.246Z,12.26
2019-06-01T23:05:15.080Z,12.33
2019-06-01T23:07:43.454Z,12.32
2019-06-01T23:10:12.734Z,12.26
2019-06-01T23:12:41.123Z,12.23
2019-06-01T23:15:09.760Z,12.19
2019-06-01T23:17:38.136Z,12.15
2019-06-01T23:20:07.101Z,12.11
2019-06-01T23:22:35.758Z,12.11
2019-06-01T23:25:04.687Z,12.05
2019-06-01T23:27:33.072Z,11.93
2019-06-01T23:30:01.461Z,11.90
2019-06-01T23:32:30.691Z,11.83
2019-06-01T23:34:59.607Z,11.73
2019-06-01T23:37:28.818Z,11.62
2019-06-01T23:39:57.261Z,11.60
2019-06-01T23:42:26.757Z,11.56
2019-06-01T23:44:55.223Z,11.51
2019-06-01T23:47:25.588Z,11.45
2019-06-01T23:49:54.154Z,11.41
2019-06-01T23:52:23.561Z,11.37
2019-06-01T23:54:52.004Z,11.33
2019-06-01T23:57:20.580Z,11.29
2019-06-01T23:59:49.237Z,11.22
